Terminal Aerodrome Forecast
Issued by NWS Billings, MT

Home | Current Version | Previous Version | Text Only | Print | Product List | Glossary On
Versions: 1 2 3 4 5 6 7 8 9 10 11 12 13 14 15 16 17 18 19 20 21 22 23 24 25 26 27 28 29 30 31 32 33 34 35 36 37 38 39 40 41 42 43 44 45 46 47 48 49 50
000
FTUS45 KBYZ 240720 AAA
TAFBIL
TAF AMD
KBIL 240720Z 2407/2506 03006KT 3SM -SN BR BKN004 OVC010
      TEMPO 2407/2411 6SM -SN SCT004 OVC013
     FM241100 VRB06KT P6SM -SN SCT007 BKN015 OVC030
     FM241800 27007KT P6SM SCT030 SCT050 BKN100=

USA.gov is the U.S. government's official web portal to all federal, state and local government web resources and services.